createdAt,value
2022-07-25T12:21:52.785Z,8.45
2022-07-25T12:26:57.460Z,9.00
2022-07-25T12:32:00.177Z,7.72
2022-07-25T12:37:04.041Z,8.95
2022-07-25T12:42:08.473Z,8.30
2022-07-25T12:47:12.139Z,7.57
2022-07-25T12:52:16.011Z,7.70
2022-07-25T12:57:20.947Z,8.00
2022-07-25T13:02:24.055Z,7.80
2022-07-25T13:07:28.074Z,8.60
2022-07-25T13:12:30.642Z,8.05
2022-07-25T13:17:33.267Z,7.38
2022-07-25T13:22:37.417Z,7.80
2022-07-25T13:27:40.101Z,8.32
2022-07-25T13:32:42.854Z,7.47
2022-07-25T13:37:47.080Z,8.70
2022-07-25T13:42:49.584Z,8.65
2022-07-25T13:48:12.133Z,7.93
2022-07-25T13:53:16.230Z,6.97
2022-07-25T13:58:20.516Z,8.07
2022-07-25T14:03:24.140Z,7.80
2022-07-25T14:08:29.440Z,8.27
2022-07-25T14:13:32.972Z,8.35
2022-07-25T14:18:35.558Z,8.05
2022-07-25T14:23:40.204Z,7.47
2022-07-25T14:28:43.597Z,7.15
2022-07-25T14:33:46.253Z,7.53
2022-07-25T14:38:50.156Z,7.47
2022-07-25T14:43:52.627Z,7.00
2022-07-25T14:48:55.210Z,6.90
2022-07-25T14:53:59.373Z,7.63
2022-07-25T14:59:02.329Z,7.72
2022-07-25T15:04:05.092Z,8.20
2022-07-25T15:13:54.985Z,7.93
2022-07-25T15:19:18.176Z,8.02
2022-07-25T15:24:23.552Z,7.70
2022-07-25T15:29:31.885Z,8.25
2022-07-25T15:34:40.592Z,8.25
2022-07-25T15:39:44.397Z,7.75
2022-07-25T15:44:48.525Z,7.53
2022-07-25T15:49:54.157Z,6.80
2022-07-25T15:54:56.799Z,6.72
2022-07-25T16:00:02.096Z,7.63
2022-07-25T16:05:06.627Z,7.32
2022-07-25T16:10:10.006Z,6.68
2022-07-25T16:15:14.119Z,7.05
2022-07-25T16:20:16.812Z,7.18
2022-07-25T16:25:20.192Z,7.22
2022-07-25T16:30:25.547Z,7.63
2022-07-25T16:35:28.611Z,8.38
2022-07-25T16:40:31.322Z,7.75
2022-07-25T16:45:35.852Z,6.88
2022-07-25T16:50:38.560Z,7.70
2022-07-25T16:55:41.428Z,7.97
2022-07-25T17:00:47.468Z,6.78
2022-07-25T17:05:53.862Z,6.72
2022-07-25T17:10:56.402Z,7.68
2022-07-25T17:16:00.397Z,8.23
2022-07-25T17:21:07.017Z,7.82
2022-07-25T17:26:09.521Z,9.25
2022-07-25T17:31:13.564Z,11.70
2022-07-25T17:36:16.190Z,8.15
2022-07-25T17:41:19.036Z,6.10
2022-07-25T17:46:23.151Z,5.65
2022-07-25T17:51:26.869Z,7.13
2022-07-25T17:56:30.673Z,5.93
2022-07-25T18:01:36.035Z,6.18
2022-07-25T18:06:38.910Z,6.25
2022-07-25T18:11:41.504Z,6.68
2022-07-25T18:16:45.860Z,6.93
2022-07-25T18:21:48.759Z,6.60
2022-07-25T18:26:51.503Z,7.30
2022-07-25T18:31:55.524Z,7.28
2022-07-25T18:36:58.139Z,7.47
2022-07-25T18:42:00.848Z,7.75
2022-07-25T18:47:05.280Z,7.07
2022-07-25T18:52:08.036Z,7.90
2022-07-25T18:57:11.755Z,7.68
2022-07-25T19:02:15.753Z,7.88
2022-07-25T19:07:18.668Z,8.10
2022-07-25T19:12:21.313Z,8.65
2022-07-25T19:17:25.349Z,7.63
2022-07-25T19:22:28.008Z,7.72
2022-07-25T19:27:30.627Z,6.45
2022-07-25T19:32:34.744Z,7.45
2022-07-25T19:37:37.317Z,7.75
2022-07-25T19:42:41.407Z,7.32
2022-07-25T19:47:45.445Z,6.93
2022-07-25T19:52:48.177Z,7.68
2022-07-25T19:57:51.297Z,7.40
2022-07-25T20:02:55.625Z,6.95
2022-07-25T20:07:58.341Z,6.68
2022-07-25T20:13:02.027Z,6.45
2022-07-25T20:18:06.890Z,6.00
2022-07-25T20:23:09.554Z,5.80
2022-07-25T20:28:12.317Z,6.72
2022-07-25T20:33:17.527Z,7.13
2022-07-25T20:38:20.881Z,7.30
2022-07-25T20:43:24.250Z,7.30
2022-07-25T20:48:29.310Z,7.57
2022-07-25T20:53:32.218Z,7.13
2022-07-25T20:58:38.534Z,7.65
2022-07-25T21:03:44.906Z,6.93
2022-07-25T21:08:49.093Z,7.18
2022-07-25T21:13:52.541Z,6.63
2022-07-25T21:18:58.034Z,6.60
2022-07-25T21:24:04.877Z,6.68
2022-07-25T21:29:09.116Z,6.43
2022-07-25T21:34:15.615Z,6.55
2022-07-25T21:39:18.512Z,5.95
2022-07-25T21:44:21.796Z,6.32
2022-07-25T21:49:45.623Z,7.00
2022-07-25T21:54:49.112Z,6.45
2022-07-25T21:59:51.866Z,7.68
2022-07-25T22:04:55.912Z,7.07
2022-07-25T22:09:58.506Z,7.30
2022-07-25T22:15:01.098Z,7.38
2022-07-25T22:20:05.649Z,7.55
2022-07-25T22:25:08.769Z,6.97
2022-07-25T22:30:16.389Z,7.57
2022-07-25T22:35:22.607Z,7.68
2022-07-25T22:40:25.112Z,7.68
2022-07-25T22:45:28.714Z,7.80
2022-07-25T22:50:32.874Z,8.10
2022-07-25T22:55:35.646Z,7.70
2022-07-25T23:00:38.879Z,7.43
2022-07-25T23:05:43.066Z,8.05
2022-07-25T23:10:46.068Z,7.70
2022-07-25T23:15:50.360Z,7.55
2022-07-25T23:20:55.348Z,6.82
2022-07-25T23:25:58.288Z,7.70
2022-07-25T23:31:05.645Z,7.95
2022-07-25T23:36:11.524Z,8.13
2022-07-25T23:41:14.146Z,8.70
2022-07-25T23:46:16.728Z,8.40
2022-07-25T23:51:22.205Z,8.30
2022-07-25T23:56:25.238Z,9.10
